sensor_id;sensor_type;location;lat;lon;timestamp;pressure;altitude;pressure_sealevel;temperature;humidity
19783;BME280;10051;40.294;-3.754;2023-04-08T00:00:10;93990.41;;;17.08;25.76
19783;BME280;10051;40.294;-3.754;2023-04-08T00:02:36;93981.84;;;17.02;25.43
19783;BME280;10051;40.294;-3.754;2023-04-08T00:05:01;93983.00;;;16.92;25.72
19783;BME280;10051;40.294;-3.754;2023-04-08T00:07:27;93989.38;;;17.00;25.71
19783;BME280;10051;40.294;-3.754;2023-04-08T00:09:52;93961.66;;;16.80;26.10
19783;BME280;10051;40.294;-3.754;2023-04-08T00:12:20;93998.09;;;17.01;26.10
19783;BME280;10051;40.294;-3.754;2023-04-08T00:14:45;93980.84;;;16.86;26.17
19783;BME280;10051;40.294;-3.754;2023-04-08T00:17:11;93986.13;;;16.86;26.30
19783;BME280;10051;40.294;-3.754;2023-04-08T00:19:36;93982.91;;;16.80;26.44
19783;BME280;10051;40.294;-3.754;2023-04-08T00:22:02;94002.41;;;16.84;26.49
19783;BME280;10051;40.294;-3.754;2023-04-08T00:24:31;94007.25;;;16.82;26.44
19783;BME280;10051;40.294;-3.754;2023-04-08T00:26:56;93947.22;;;16.39;26.77
19783;BME280;10051;40.294;-3.754;2023-04-08T00:29:22;93992.22;;;16.65;26.50
19783;BME280;10051;40.294;-3.754;2023-04-08T00:31:47;94009.47;;;16.80;26.79
19783;BME280;10051;40.294;-3.754;2023-04-08T00:34:13;93998.91;;;16.62;27.06
19783;BME280;10051;40.294;-3.754;2023-04-08T00:36:39;93998.78;;;16.59;27.55
19783;BME280;10051;40.294;-3.754;2023-04-08T00:39:05;94012.31;;;16.36;27.51
19783;BME280;10051;40.294;-3.754;2023-04-08T00:41:33;94027.03;;;16.16;27.74
19783;BME280;10051;40.294;-3.754;2023-04-08T00:43:59;94014.16;;;16.05;27.74
19783;BME280;10051;40.294;-3.754;2023-04-08T00:46:24;94023.75;;;16.19;27.27
19783;BME280;10051;40.294;-3.754;2023-04-08T00:48:51;94019.72;;;16.22;27.22
19783;BME280;10051;40.294;-3.754;2023-04-08T00:51:17;94024.97;;;16.30;27.50
19783;BME280;10051;40.294;-3.754;2023-04-08T00:53:48;93998.78;;;16.20;26.94
19783;BME280;10051;40.294;-3.754;2023-04-08T00:56:16;94027.59;;;16.39;27.23
19783;BME280;10051;40.294;-3.754;2023-04-08T00:58:42;94019.97;;;16.38;27.37
19783;BME280;10051;40.294;-3.754;2023-04-08T01:01:43;94020.88;;;16.42;27.45
19783;BME280;10051;40.294;-3.754;2023-04-08T01:07:02;94023.38;;;16.47;27.87
19783;BME280;10051;40.294;-3.754;2023-04-08T01:09:34;94000.59;;;16.37;27.98
19783;BME280;10051;40.294;-3.754;2023-04-08T01:12:05;93992.69;;;16.28;28.38
19783;BME280;10051;40.294;-3.754;2023-04-08T01:14:34;94003.47;;;16.32;28.63
19783;BME280;10051;40.294;-3.754;2023-04-08T01:17:04;94012.50;;;16.31;28.70
19783;BME280;10051;40.294;-3.754;2023-04-08T01:19:32;93998.63;;;16.25;28.77
19783;BME280;10051;40.294;-3.754;2023-04-08T01:25:07;93996.94;;;16.12;29.51
19783;BME280;10051;40.294;-3.754;2023-04-08T01:27:35;93985.44;;;16.08;29.60
19783;BME280;10051;40.294;-3.754;2023-04-08T01:30:04;94001.16;;;16.22;29.66
19783;BME280;10051;40.294;-3.754;2023-04-08T01:32:33;94010.03;;;16.17;29.83
19783;BME280;10051;40.294;-3.754;2023-04-08T01:35:00;93989.66;;;16.00;29.02
19783;BME280;10051;40.294;-3.754;2023-04-08T01:37:27;94003.50;;;16.14;28.77
19783;BME280;10051;40.294;-3.754;2023-04-08T01:39:54;93978.75;;;16.01;28.41
19783;BME280;10051;40.294;-3.754;2023-04-08T01:42:25;93988.91;;;15.99;28.70
19783;BME280;10051;40.294;-3.754;2023-04-08T01:44:57;93983.47;;;15.60;29.24
19783;BME280;10051;40.294;-3.754;2023-04-08T01:47:24;93990.19;;;15.58;29.92
19783;BME280;10051;40.294;-3.754;2023-04-08T01:49:51;93988.97;;;15.46;29.91
19783;BME280;10051;40.294;-3.754;2023-04-08T01:52:18;94006.41;;;15.48;30.52
19783;BME280;10051;40.294;-3.754;2023-04-08T01:54:45;93989.28;;;15.36;30.49
19783;BME280;10051;40.294;-3.754;2023-04-08T01:57:16;93996.56;;;15.48;30.80
19783;BME280;10051;40.294;-3.754;2023-04-08T01:59:42;94020.75;;;15.64;30.40
19783;BME280;10051;40.294;-3.754;2023-04-08T02:02:11;93995.03;;;15.56;30.72
19783;BME280;10051;40.294;-3.754;2023-04-08T02:04:37;94002.19;;;15.64;30.76
19783;BME280;10051;40.294;-3.754;2023-04-08T02:07:03;93983.03;;;15.50;30.84
19783;BME280;10051;40.294;-3.754;2023-04-08T02:09:30;94005.00;;;15.50;30.43
19783;BME280;10051;40.294;-3.754;2023-04-08T02:11:55;94018.25;;;15.41;30.77
19783;BME280;10051;40.294;-3.754;2023-04-08T02:14:22;94017.66;;;15.36;30.79
19783;BME280;10051;40.294;-3.754;2023-04-08T02:19:43;94010.44;;;15.63;30.31
19783;BME280;10051;40.294;-3.754;2023-04-08T02:22:16;94016.38;;;15.77;30.15
19783;BME280;10051;40.294;-3.754;2023-04-08T02:24:45;93992.53;;;15.59;30.30
19783;BME280;10051;40.294;-3.754;2023-04-08T02:27:11;93997.50;;;15.52;30.52
19783;BME280;10051;40.294;-3.754;2023-04-08T02:29:39;93970.13;;;15.13;30.67
19783;BME280;10051;40.294;-3.754;2023-04-08T02:32:07;93994.09;;;15.08;31.30
19783;BME280;10051;40.294;-3.754;2023-04-08T02:34:36;93974.28;;;14.87;31.58
19783;BME280;10051;40.294;-3.754;2023-04-08T02:37:03;93993.16;;;14.86;32.01
19783;BME280;10051;40.294;-3.754;2023-04-08T02:39:32;94010.78;;;15.08;31.69
19783;BME280;10051;40.294;-3.754;2023-04-08T02:41:57;94009.22;;;15.07;32.24
19783;BME280;10051;40.294;-3.754;2023-04-08T02:44:23;93977.59;;;15.02;31.54
19783;BME280;10051;40.294;-3.754;2023-04-08T02:46:52;93995.00;;;14.85;32.21
19783;BME280;10051;40.294;-3.754;2023-04-08T02:49:17;94007.28;;;14.81;32.47
19783;BME280;10051;40.294;-3.754;2023-04-08T02:51:43;93992.31;;;14.68;32.34
19783;BME280;10051;40.294;-3.754;2023-04-08T02:54:08;93992.38;;;14.45;33.25
19783;BME280;10051;40.294;-3.754;2023-04-08T02:56:34;93974.59;;;14.28;33.44
19783;BME280;10051;40.294;-3.754;2023-04-08T02:58:59;94023.22;;;14.50;33.33
19783;BME280;10051;40.294;-3.754;2023-04-08T03:01:25;94020.06;;;14.39;33.58
19783;BME280;10051;40.294;-3.754;2023-04-08T03:03:53;94019.59;;;14.37;33.39
19783;BME280;10051;40.294;-3.754;2023-04-08T03:06:18;94010.72;;;14.33;32.82
19783;BME280;10051;40.294;-3.754;2023-04-08T03:08:44;94011.00;;;14.22;33.23
19783;BME280;10051;40.294;-3.754;2023-04-08T03:11:09;94020.13;;;14.16;33.43
19783;BME280;10051;40.294;-3.754;2023-04-08T03:13:35;93995.47;;;13.98;33.18
19783;BME280;10051;40.294;-3.754;2023-04-08T03:16:01;94018.41;;;14.11;32.22
19783;BME280;10051;40.294;-3.754;2023-04-08T03:18:27;93989.22;;;13.85;32.11
19783;BME280;10051;40.294;-3.754;2023-04-08T03:20:52;94015.44;;;13.81;32.12
19783;BME280;10051;40.294;-3.754;2023-04-08T03:23:18;94002.06;;;13.55;32.02
19783;BME280;10051;40.294;-3.754;2023-04-08T03:25:43;94012.16;;;13.53;32.41
19783;BME280;10051;40.294;-3.754;2023-04-08T03:28:09;94014.44;;;13.46;32.42
19783;BME280;10051;40.294;-3.754;2023-04-08T03:30:35;93979.91;;;13.19;32.69
19783;BME280;10051;40.294;-3.754;2023-04-08T03:33:00;94009.94;;;13.46;32.76
19783;BME280;10051;40.294;-3.754;2023-04-08T03:35:27;93960.81;;;13.22;33.03
19783;BME280;10051;40.294;-3.754;2023-04-08T03:37:53;93987.16;;;13.36;33.43
19783;BME280;10051;40.294;-3.754;2023-04-08T03:40:19;93967.94;;;13.22;33.46
19783;BME280;10051;40.294;-3.754;2023-04-08T03:42:45;93963.94;;;13.24;33.16
19783;BME280;10051;40.294;-3.754;2023-04-08T03:45:13;94004.22;;;13.53;32.83
19783;BME280;10051;40.294;-3.754;2023-04-08T03:47:39;94009.88;;;13.60;32.62
19783;BME280;10051;40.294;-3.754;2023-04-08T03:50:05;94002.66;;;13.52;32.59
19783;BME280;10051;40.294;-3.754;2023-04-08T03:52:31;94014.19;;;13.56;32.57
19783;BME280;10051;40.294;-3.754;2023-04-08T03:54:56;94003.41;;;13.44;33.00
19783;BME280;10051;40.294;-3.754;2023-04-08T03:57:22;94014.25;;;13.42;33.36
19783;BME280;10051;40.294;-3.754;2023-04-08T03:59:47;94016.28;;;13.45;33.19
19783;BME280;10051;40.294;-3.754;2023-04-08T04:02:13;93962.28;;;13.15;32.78
19783;BME280;10051;40.294;-3.754;2023-04-08T04:04:38;93994.25;;;13.50;32.87
19783;BME280;10051;40.294;-3.754;2023-04-08T04:07:04;93986.94;;;13.70;32.44
19783;BME280;10051;40.294;-3.754;2023-04-08T04:09:30;93983.22;;;13.71;33.24
19783;BME280;10051;40.294;-3.754;2023-04-08T04:11:55;94021.00;;;14.03;32.83
19783;BME280;10051;40.294;-3.754;2023-04-08T04:14:21;94007.38;;;13.87;32.58
19783;BME280;10051;40.294;-3.754;2023-04-08T04:16:47;94021.25;;;13.92;32.45
19783;BME280;10051;40.294;-3.754;2023-04-08T04:19:12;94010.69;;;13.92;32.95
19783;BME280;10051;40.294;-3.754;2023-04-08T04:21:38;94018.72;;;14.10;33.27
19783;BME280;10051;40.294;-3.754;2023-04-08T04:24:04;94016.66;;;14.07;33.52
19783;BME280;10051;40.294;-3.754;2023-04-08T04:26:32;94021.19;;;14.06;33.61
19783;BME280;10051;40.294;-3.754;2023-04-08T04:28:58;94000.97;;;13.79;33.38
19783;BME280;10051;40.294;-3.754;2023-04-08T04:31:24;94015.94;;;13.61;34.21
19783;BME280;10051;40.294;-3.754;2023-04-08T04:33:52;94018.38;;;13.34;34.42
19783;BME280;10051;40.294;-3.754;2023-04-08T04:36:18;94005.88;;;13.26;34.48
19783;BME280;10051;40.294;-3.754;2023-04-08T04:38:44;93980.38;;;13.21;34.54
19783;BME280;10051;40.294;-3.754;2023-04-08T04:41:13;94028.31;;;13.51;33.82
19783;BME280;10051;40.294;-3.754;2023-04-08T04:43:38;94018.88;;;13.59;34.19
19783;BME280;10051;40.294;-3.754;2023-04-08T04:46:04;94025.66;;;13.74;34.76
19783;BME280;10051;40.294;-3.754;2023-04-08T04:48:33;94017.69;;;13.65;34.69
19783;BME280;10051;40.294;-3.754;2023-04-08T04:51:00;94026.53;;;13.47;34.18
19783;BME280;10051;40.294;-3.754;2023-04-08T04:53:27;94020.75;;;13.22;34.48
19783;BME280;10051;40.294;-3.754;2023-04-08T04:55:53;94016.09;;;13.05;34.42
19783;BME280;10051;40.294;-3.754;2023-04-08T04:58:19;94027.81;;;13.13;34.19
19783;BME280;10051;40.294;-3.754;2023-04-08T05:00:45;94017.41;;;13.30;33.77
19783;BME280;10051;40.294;-3.754;2023-04-08T05:03:11;94004.13;;;13.21;33.75
19783;BME280;10051;40.294;-3.754;2023-04-08T05:05:37;94018.91;;;13.08;34.04
19783;BME280;10051;40.294;-3.754;2023-04-08T05:08:02;94043.22;;;13.33;33.79
19783;BME280;10051;40.294;-3.754;2023-04-08T05:10:28;93999.63;;;13.22;33.78
19783;BME280;10051;40.294;-3.754;2023-04-08T05:12:54;94016.69;;;13.38;33.62
19783;BME280;10051;40.294;-3.754;2023-04-08T05:15:19;94042.06;;;13.62;33.48
19783;BME280;10051;40.294;-3.754;2023-04-08T05:17:45;94044.69;;;13.62;33.54
19783;BME280;10051;40.294;-3.754;2023-04-08T05:20:11;94018.16;;;13.31;33.73
19783;BME280;10051;40.294;-3.754;2023-04-08T05:22:37;94040.69;;;13.28;34.02
19783;BME280;10051;40.294;-3.754;2023-04-08T05:25:03;93973.22;;;12.85;34.37
19783;BME280;10051;40.294;-3.754;2023-04-08T05:27:28;94031.84;;;13.10;34.75
19783;BME280;10051;40.294;-3.754;2023-04-08T05:29:54;94037.28;;;13.14;35.11
19783;BME280;10051;40.294;-3.754;2023-04-08T05:32:19;94028.63;;;12.99;34.80
19783;BME280;10051;40.294;-3.754;2023-04-08T05:34:51;94051.13;;;13.33;34.41
19783;BME280;10051;40.294;-3.754;2023-04-08T05:37:16;94018.81;;;13.14;34.63
19783;BME280;10051;40.294;-3.754;2023-04-08T05:39:42;94047.47;;;13.20;34.98
19783;BME280;10051;40.294;-3.754;2023-04-08T05:42:07;94059.09;;;13.05;35.65
19783;BME280;10051;40.294;-3.754;2023-04-08T05:44:35;94065.31;;;12.87;36.44
19783;BME280;10051;40.294;-3.754;2023-04-08T05:47:00;94044.41;;;12.62;36.55
19783;BME280;10051;40.294;-3.754;2023-04-08T05:49:26;94060.81;;;12.73;36.61
19783;BME280;10051;40.294;-3.754;2023-04-08T05:51:52;94075.38;;;12.85;36.78
19783;BME280;10051;40.294;-3.754;2023-04-08T05:54:17;94054.25;;;12.85;36.46
19783;BME280;10051;40.294;-3.754;2023-04-08T05:56:43;94063.91;;;12.89;36.78
19783;BME280;10051;40.294;-3.754;2023-04-08T05:59:10;94041.94;;;12.66;36.41
19783;BME280;10051;40.294;-3.754;2023-04-08T06:01:36;94042.53;;;12.35;36.66
19783;BME280;10051;40.294;-3.754;2023-04-08T06:04:01;94046.25;;;12.34;37.12
19783;BME280;10051;40.294;-3.754;2023-04-08T06:06:27;94074.00;;;12.45;37.07
19783;BME280;10051;40.294;-3.754;2023-04-08T06:08:52;94070.47;;;12.36;37.46
19783;BME280;10051;40.294;-3.754;2023-04-08T06:11:18;94056.19;;;12.23;37.22
19783;BME280;10051;40.294;-3.754;2023-04-08T06:13:44;94087.38;;;12.63;36.72
19783;BME280;10051;40.294;-3.754;2023-04-08T06:16:14;94094.81;;;12.89;35.39
19783;BME280;10051;40.294;-3.754;2023-04-08T06:18:40;94099.84;;;13.41;34.52
19783;BME280;10051;40.294;-3.754;2023-04-08T06:21:05;94108.41;;;13.83;34.44
19783;BME280;10051;40.294;-3.754;2023-04-08T06:23:31;94095.38;;;13.64;34.11
19783;BME280;10051;40.294;-3.754;2023-04-08T06:25:56;94084.78;;;13.42;33.84
19783;BME280;10051;40.294;-3.754;2023-04-08T06:28:23;94111.06;;;13.33;34.68
19783;BME280;10051;40.294;-3.754;2023-04-08T06:30:48;94097.97;;;13.28;34.82
19783;BME280;10051;40.294;-3.754;2023-04-08T06:33:14;94084.53;;;13.15;34.70
19783;BME280;10051;40.294;-3.754;2023-04-08T06:35:40;94117.91;;;13.48;34.86
19783;BME280;10051;40.294;-3.754;2023-04-08T06:38:06;94103.84;;;13.52;34.40
19783;BME280;10051;40.294;-3.754;2023-04-08T06:40:31;94104.16;;;13.74;33.94
19783;BME280;10051;40.294;-3.754;2023-04-08T06:42:57;94099.25;;;13.81;33.62
19783;BME280;10051;40.294;-3.754;2023-04-08T06:45:22;94123.13;;;14.21;33.76
19783;BME280;10051;40.294;-3.754;2023-04-08T06:47:48;94095.66;;;14.31;33.57
19783;BME280;10051;40.294;-3.754;2023-04-08T06:50:14;94128.44;;;14.84;32.58
19783;BME280;10051;40.294;-3.754;2023-04-08T06:52:39;94120.44;;;15.07;32.62
19783;BME280;10051;40.294;-3.754;2023-04-08T06:55:05;94126.88;;;15.32;31.73
19783;BME280;10051;40.294;-3.754;2023-04-08T06:57:30;94118.16;;;15.41;31.44
19783;BME280;10051;40.294;-3.754;2023-04-08T06:59:56;94136.75;;;15.67;31.27
19783;BME280;10051;40.294;-3.754;2023-04-08T07:02:21;94126.91;;;15.76;30.89
19783;BME280;10051;40.294;-3.754;2023-04-08T07:04:47;94134.56;;;15.87;31.33
19783;BME280;10051;40.294;-3.754;2023-04-08T07:07:13;94169.66;;;16.10;31.05
19783;BME280;10051;40.294;-3.754;2023-04-08T07:09:39;94165.78;;;16.08;31.22
19783;BME280;10051;40.294;-3.754;2023-04-08T07:12:07;94161.56;;;16.07;31.42
19783;BME280;10051;40.294;-3.754;2023-04-08T07:14:33;94152.06;;;16.05;31.62
19783;BME280;10051;40.294;-3.754;2023-04-08T07:16:59;94178.84;;;16.30;31.75
19783;BME280;10051;40.294;-3.754;2023-04-08T07:19:24;94175.25;;;16.44;31.58
19783;BME280;10051;40.294;-3.754;2023-04-08T07:21:50;94181.81;;;16.38;31.90
19783;BME280;10051;40.294;-3.754;2023-04-08T07:24:17;94156.09;;;16.12;31.69
19783;BME280;10051;40.294;-3.754;2023-04-08T07:26:43;94177.75;;;16.49;31.49
19783;BME280;10051;40.294;-3.754;2023-04-08T07:29:09;94170.06;;;16.56;31.63
19783;BME280;10051;40.294;-3.754;2023-04-08T07:31:34;94161.59;;;16.72;31.09
19783;BME280;10051;40.294;-3.754;2023-04-08T07:34:00;94159.88;;;16.76;30.86
19783;BME280;10051;40.294;-3.754;2023-04-08T07:36:26;94169.00;;;17.05;30.74
19783;BME280;10051;40.294;-3.754;2023-04-08T07:38:52;94169.56;;;17.19;30.49
19783;BME280;10051;40.294;-3.754;2023-04-08T07:41:20;94182.59;;;17.42;29.94
19783;BME280;10051;40.294;-3.754;2023-04-08T07:43:46;94169.72;;;17.53;30.12
19783;BME280;10051;40.294;-3.754;2023-04-08T07:46:11;94185.69;;;17.74;30.33
19783;BME280;10051;40.294;-3.754;2023-04-08T07:48:37;94176.63;;;17.75;29.79
19783;BME280;10051;40.294;-3.754;2023-04-08T07:51:07;94187.34;;;17.88;29.76
19783;BME280;10051;40.294;-3.754;2023-04-08T07:53:36;94190.03;;;17.79;29.73
19783;BME280;10051;40.294;-3.754;2023-04-08T07:56:09;94181.09;;;17.83;29.77
19783;BME280;10051;40.294;-3.754;2023-04-08T07:58:34;94167.09;;;17.95;29.27
19783;BME280;10051;40.294;-3.754;2023-04-08T08:01:00;94177.69;;;18.04;29.43
19783;BME280;10051;40.294;-3.754;2023-04-08T08:03:26;94170.91;;;17.86;29.05
19783;BME280;10051;40.294;-3.754;2023-04-08T08:05:51;94200.69;;;18.21;29.88
19783;BME280;10051;40.294;-3.754;2023-04-08T08:08:17;94202.88;;;18.40;28.91
19783;BME280;10051;40.294;-3.754;2023-04-08T08:10:42;94184.63;;;18.18;28.78
19783;BME280;10051;40.294;-3.754;2023-04-08T08:13:08;94202.69;;;18.46;29.11
19783;BME280;10051;40.294;-3.754;2023-04-08T08:15:33;94178.03;;;18.36;28.54
19783;BME280;10051;40.294;-3.754;2023-04-08T08:17:59;94213.22;;;18.76;28.51
19783;BME280;10051;40.294;-3.754;2023-04-08T08:20:25;94201.88;;;18.66;29.02
19783;BME280;10051;40.294;-3.754;2023-04-08T08:22:51;94206.34;;;18.87;29.16
19783;BME280;10051;40.294;-3.754;2023-04-08T08:25:17;94197.03;;;18.93;28.26
19783;BME280;10051;40.294;-3.754;2023-04-08T08:27:43;94200.38;;;18.90;29.55
19783;BME280;10051;40.294;-3.754;2023-04-08T08:30:09;94187.16;;;18.81;28.71
19783;BME280;10051;40.294;-3.754;2023-04-08T08:32:35;94214.47;;;18.91;27.04
19783;BME280;10051;40.294;-3.754;2023-04-08T08:35:01;94221.75;;;19.02;27.21
19783;BME280;10051;40.294;-3.754;2023-04-08T08:37:26;94176.38;;;18.90;27.04
19783;BME280;10051;40.294;-3.754;2023-04-08T08:39:52;94220.09;;;18.77;27.83
19783;BME280;10051;40.294;-3.754;2023-04-08T08:42:22;94221.81;;;18.60;28.49
19783;BME280;10051;40.294;-3.754;2023-04-08T08:44:51;94213.69;;;18.90;27.72
19783;BME280;10051;40.294;-3.754;2023-04-08T08:47:16;94222.75;;;19.23;27.15
19783;BME280;10051;40.294;-3.754;2023-04-08T08:49:43;94227.78;;;19.49;26.70
19783;BME280;10051;40.294;-3.754;2023-04-08T08:52:10;94221.53;;;19.70;26.61
19783;BME280;10051;40.294;-3.754;2023-04-08T08:54:36;94196.22;;;19.39;25.44
19783;BME280;10051;40.294;-3.754;2023-04-08T08:57:02;94211.66;;;19.45;25.58
19783;BME280;10051;40.294;-3.754;2023-04-08T08:59:30;94223.00;;;19.30;25.57
19783;BME280;10051;40.294;-3.754;2023-04-08T09:01:56;94193.78;;;19.09;25.91
19783;BME280;10051;40.294;-3.754;2023-04-08T09:04:21;94231.78;;;19.55;25.31
19783;BME280;10051;40.294;-3.754;2023-04-08T09:06:49;94226.41;;;19.80;26.13
19783;BME280;10051;40.294;-3.754;2023-04-08T09:09:22;94235.53;;;20.04;26.41
19783;BME280;10051;40.294;-3.754;2023-04-08T09:12:02;94202.97;;;19.98;25.74
19783;BME280;10051;40.294;-3.754;2023-04-08T09:14:28;94145.78;;;19.58;25.63
19783;BME280;10051;40.294;-3.754;2023-04-08T09:16:54;94200.72;;;19.88;25.08
19783;BME280;10051;40.294;-3.754;2023-04-08T09:19:22;94238.81;;;20.26;25.58
19783;BME280;10051;40.294;-3.754;2023-04-08T09:22:10;94241.47;;;20.38;24.94
19783;BME280;10051;40.294;-3.754;2023-04-08T09:24:36;94231.00;;;20.33;24.68
19783;BME280;10051;40.294;-3.754;2023-04-08T09:27:05;94225.25;;;20.59;24.59
19783;BME280;10051;40.294;-3.754;2023-04-08T09:29:31;94214.03;;;20.25;24.86
19783;BME280;10051;40.294;-3.754;2023-04-08T09:31:59;94227.88;;;20.43;24.24
19783;BME280;10051;40.294;-3.754;2023-04-08T09:34:26;94222.84;;;20.70;24.74
19783;BME280;10051;40.294;-3.754;2023-04-08T09:36:53;94239.28;;;20.85;24.78
19783;BME280;10051;40.294;-3.754;2023-04-08T09:39:19;94223.19;;;20.97;24.34
19783;BME280;10051;40.294;-3.754;2023-04-08T09:41:48;94239.59;;;21.28;24.58
19783;BME280;10051;40.294;-3.754;2023-04-08T09:44:15;94239.06;;;21.54;22.81
19783;BME280;10051;40.294;-3.754;2023-04-08T09:49:54;94248.16;;;21.33;23.29
19783;BME280;10051;40.294;-3.754;2023-04-08T09:52:44;94247.78;;;21.51;23.44
19783;BME280;10051;40.294;-3.754;2023-04-08T09:55:12;94193.28;;;21.39;22.98
19783;BME280;10051;40.294;-3.754;2023-04-08T09:57:42;94238.78;;;21.91;23.06
19783;BME280;10051;40.294;-3.754;2023-04-08T10:00:16;94234.28;;;21.95;23.28
19783;BME280;10051;40.294;-3.754;2023-04-08T10:02:51;94231.50;;;22.08;22.91
19783;BME280;10051;40.294;-3.754;2023-04-08T10:05:20;94224.72;;;22.14;22.80
19783;BME280;10051;40.294;-3.754;2023-04-08T10:07:47;94215.03;;;22.25;22.15
19783;BME280;10051;40.294;-3.754;2023-04-08T10:10:13;94216.63;;;22.30;22.44
19783;BME280;10051;40.294;-3.754;2023-04-08T10:12:39;94230.03;;;22.30;23.24
19783;BME280;10051;40.294;-3.754;2023-04-08T10:15:25;94209.94;;;22.40;22.42
19783;BME280;10051;40.294;-3.754;2023-04-08T10:23:07;94212.84;;;22.70;20.87
19783;BME280;10051;40.294;-3.754;2023-04-08T10:25:34;94222.94;;;22.57;21.32
19783;BME280;10051;40.294;-3.754;2023-04-08T10:30:49;94220.06;;;22.90;21.09
19783;BME280;10051;40.294;-3.754;2023-04-08T10:33:23;94211.44;;;23.00;20.47
19783;BME280;10051;40.294;-3.754;2023-04-08T10:38:20;94218.31;;;23.44;21.51
19783;BME280;10051;40.294;-3.754;2023-04-08T10:40:47;94215.41;;;23.53;20.92
19783;BME280;10051;40.294;-3.754;2023-04-08T10:43:13;94218.25;;;23.64;20.97
19783;BME280;10051;40.294;-3.754;2023-04-08T10:45:41;94220.75;;;23.80;21.29
19783;BME280;10051;40.294;-3.754;2023-04-08T10:48:20;94211.09;;;23.98;20.62
19783;BME280;10051;40.294;-3.754;2023-04-08T10:51:03;94197.94;;;23.66;19.27
19783;BME280;10051;40.294;-3.754;2023-04-08T10:53:33;94187.31;;;23.46;19.25
19783;BME280;10051;40.294;-3.754;2023-04-08T10:56:07;94211.69;;;23.61;19.26
19783;BME280;10051;40.294;-3.754;2023-04-08T10:58:33;94203.31;;;23.39;19.38
19783;BME280;10051;40.294;-3.754;2023-04-08T11:01:06;94191.75;;;23.35;18.96
19783;BME280;10051;40.294;-3.754;2023-04-08T11:03:32;94209.47;;;23.40;20.02
19783;BME280;10051;40.294;-3.754;2023-04-08T11:05:59;94209.72;;;23.58;19.67
19783;BME280;10051;40.294;-3.754;2023-04-08T11:08:29;94209.72;;;23.85;19.15
19783;BME280;10051;40.294;-3.754;2023-04-08T11:10:57;94197.66;;;23.98;20.00
19783;BME280;10051;40.294;-3.754;2023-04-08T11:13:23;94196.97;;;23.78;19.51
19783;BME280;10051;40.294;-3.754;2023-04-08T11:15:49;94203.66;;;23.91;19.16
19783;BME280;10051;40.294;-3.754;2023-04-08T11:18:15;94156.66;;;23.74;18.67
19783;BME280;10051;40.294;-3.754;2023-04-08T11:20:43;94165.22;;;23.84;18.85
19783;BME280;10051;40.294;-3.754;2023-04-08T11:23:15;94193.75;;;24.23;18.20
19783;BME280;10051;40.294;-3.754;2023-04-08T11:25:42;94160.59;;;24.11;18.07
19783;BME280;10051;40.294;-3.754;2023-04-08T11:28:08;94175.81;;;24.34;18.54
19783;BME280;10051;40.294;-3.754;2023-04-08T11:30:34;94184.88;;;24.53;17.61
19783;BME280;10051;40.294;-3.754;2023-04-08T11:33:00;94181.06;;;24.57;17.49
19783;BME280;10051;40.294;-3.754;2023-04-08T11:35:29;94161.91;;;24.59;17.46
19783;BME280;10051;40.294;-3.754;2023-04-08T11:37:56;94181.84;;;24.58;17.91
19783;BME280;10051;40.294;-3.754;2023-04-08T11:40:22;94178.66;;;24.79;17.71
19783;BME280;10051;40.294;-3.754;2023-04-08T11:42:49;94172.28;;;24.98;18.00
19783;BME280;10051;40.294;-3.754;2023-04-08T11:45:18;94166.41;;;24.85;17.35
19783;BME280;10051;40.294;-3.754;2023-04-08T11:47:44;94177.28;;;25.00;18.17
19783;BME280;10051;40.294;-3.754;2023-04-08T11:50:11;94147.25;;;24.90;17.35
19783;BME280;10051;40.294;-3.754;2023-04-08T11:52:47;94168.53;;;25.10;17.40
19783;BME280;10051;40.294;-3.754;2023-04-08T11:55:27;94175.59;;;25.29;17.27
19783;BME280;10051;40.294;-3.754;2023-04-08T11:57:54;94158.00;;;25.39;17.20
19783;BME280;10051;40.294;-3.754;2023-04-08T12:00:23;94155.78;;;25.48;17.95
19783;BME280;10051;40.294;-3.754;2023-04-08T12:02:50;94148.47;;;25.45;16.96
19783;BME280;10051;40.294;-3.754;2023-04-08T12:05:18;94148.75;;;25.33;17.10
19783;BME280;10051;40.294;-3.754;2023-04-08T12:07:44;94154.28;;;25.51;16.83
19783;BME280;10051;40.294;-3.754;2023-04-08T12:10:10;94154.63;;;25.46;16.99
19783;BME280;10051;40.294;-3.754;2023-04-08T12:12:37;94117.28;;;25.41;17.71
19783;BME280;10051;40.294;-3.754;2023-04-08T12:15:03;94122.13;;;25.80;16.70
19783;BME280;10051;40.294;-3.754;2023-04-08T12:17:29;94135.31;;;26.07;16.14
19783;BME280;10051;40.294;-3.754;2023-04-08T12:19:55;94120.66;;;25.97;16.86
19783;BME280;10051;40.294;-3.754;2023-04-08T12:22:23;94128.13;;;26.29;16.58
19783;BME280;10051;40.294;-3.754;2023-04-08T12:24:49;94115.44;;;26.33;16.99
19783;BME280;10051;40.294;-3.754;2023-04-08T12:27:15;94105.41;;;26.26;15.54
19783;BME280;10051;40.294;-3.754;2023-04-08T12:29:40;94126.97;;;26.26;16.21
19783;BME280;10051;40.294;-3.754;2023-04-08T12:32:06;93991.66;;;25.52;16.59
19783;BME280;10051;40.294;-3.754;2023-04-08T12:34:32;94120.47;;;26.46;15.63
19783;BME280;10051;40.294;-3.754;2023-04-08T12:36:57;94113.91;;;26.36;15.27
19783;BME280;10051;40.294;-3.754;2023-04-08T12:39:23;94109.63;;;26.20;15.38
19783;BME280;10051;40.294;-3.754;2023-04-08T12:41:49;94111.47;;;26.02;15.80
19783;BME280;10051;40.294;-3.754;2023-04-08T12:44:15;94114.91;;;26.06;16.39
19783;BME280;10051;40.294;-3.754;2023-04-08T12:46:41;94113.91;;;26.39;15.98
19783;BME280;10051;40.294;-3.754;2023-04-08T12:49:06;94111.63;;;26.49;16.30
19783;BME280;10051;40.294;-3.754;2023-04-08T12:51:33;94078.50;;;26.41;16.33
19783;BME280;10051;40.294;-3.754;2023-04-08T12:54:01;94100.09;;;26.81;15.54
19783;BME280;10051;40.294;-3.754;2023-04-08T12:56:28;94101.69;;;26.89;16.28
19783;BME280;10051;40.294;-3.754;2023-04-08T12:58:54;94091.66;;;26.93;16.81
19783;BME280;10051;40.294;-3.754;2023-04-08T13:01:20;94086.28;;;27.00;15.23
19783;BME280;10051;40.294;-3.754;2023-04-08T13:03:46;94081.25;;;26.95;15.03
19783;BME280;10051;40.294;-3.754;2023-04-08T13:06:12;94054.66;;;26.90;15.88
19783;BME280;10051;40.294;-3.754;2023-04-08T13:08:38;94075.47;;;27.00;14.75
19783;BME280;10051;40.294;-3.754;2023-04-08T13:11:04;94080.88;;;26.97;15.10